createdAt,value
2022-08-08T00:01:08.402Z,21.40
2022-08-08T00:03:51.058Z,21.30
2022-08-08T00:06:46.825Z,21.20
2022-08-08T00:09:24.866Z,21.20
2022-08-08T00:12:09.557Z,21.20
2022-08-08T00:15:00.236Z,21.20
2022-08-08T00:18:02.079Z,21.10
2022-08-08T00:20:38.987Z,21.10
2022-08-08T00:23:14.988Z,21.00
2022-08-08T00:25:51.184Z,21.00
2022-08-08T00:28:35.457Z,21.00
2022-08-08T00:32:19.977Z,20.90
2022-08-08T00:34:46.033Z,20.90
2022-08-08T00:37:48.325Z,20.90
2022-08-08T00:41:14.435Z,20.80
2022-08-08T00:44:12.706Z,20.70
2022-08-08T00:47:23.013Z,20.70
2022-08-08T00:50:29.806Z,20.70
2022-08-08T00:53:15.731Z,20.70
2022-08-08T00:56:23.881Z,20.60
2022-08-08T00:59:44.380Z,20.50
2022-08-08T01:04:00.201Z,20.50
2022-08-08T01:06:27.300Z,20.50
2022-08-08T01:09:35.710Z,20.50
2022-08-08T01:13:00.429Z,20.40
2022-08-08T01:15:54.127Z,20.40
2022-08-08T01:18:56.390Z,20.30
2022-08-08T01:22:12.669Z,20.30
2022-08-08T01:25:40.060Z,20.20
2022-08-08T01:28:27.774Z,20.20
2022-08-08T01:32:14.689Z,20.20
2022-08-08T01:35:11.335Z,20.10
2022-08-08T01:38:10.672Z,20.10
2022-08-08T01:41:01.934Z,20.10
2022-08-08T01:43:46.963Z,20.00
2022-08-08T01:46:52.393Z,20.00
2022-08-08T01:49:43.899Z,20.00
2022-08-08T01:53:06.827Z,19.90
2022-08-08T01:56:27.730Z,19.90
2022-08-08T01:58:47.142Z,19.80
2022-08-08T02:02:00.409Z,19.80
2022-08-08T02:04:32.794Z,19.80
2022-08-08T02:07:09.609Z,19.70
2022-08-08T02:10:03.559Z,19.70
2022-08-08T02:12:53.130Z,19.70
2022-08-08T02:15:38.478Z,19.60
2022-08-08T02:18:16.931Z,19.60
2022-08-08T02:21:13.229Z,19.60
2022-08-08T02:23:50.854Z,19.50
2022-08-08T02:26:31.862Z,19.50
2022-08-08T02:29:20.807Z,19.50
2022-08-08T02:32:15.804Z,19.50
2022-08-08T02:35:28.602Z,19.50
2022-08-08T02:38:29.144Z,19.40
2022-08-08T02:41:58.723Z,19.40
2022-08-08T02:45:00.986Z,19.40
2022-08-08T02:48:09.113Z,19.30
2022-08-08T02:51:21.115Z,19.30
2022-08-08T02:54:21.189Z,19.20
2022-08-08T02:57:40.456Z,19.20
2022-08-08T03:00:31.812Z,19.20
2022-08-08T03:05:04.758Z,19.10
2022-08-08T03:07:41.159Z,19.10
2022-08-08T03:10:44.402Z,19.10
2022-08-08T03:16:01.862Z,19.10
2022-08-08T03:16:48.332Z,19.00
2022-08-08T03:19:50.463Z,19.00
2022-08-08T03:22:50.937Z,19.00
2022-08-08T03:25:19.248Z,18.90
2022-08-08T03:28:00.800Z,18.90
2022-08-08T03:30:36.031Z,18.90
2022-08-08T03:33:55.039Z,18.90
2022-08-08T03:36:19.719Z,18.90
2022-08-08T03:39:07.526Z,18.80
2022-08-08T03:42:26.667Z,18.80
2022-08-08T03:44:47.746Z,18.70
2022-08-08T03:47:25.193Z,18.80
2022-08-08T03:50:20.115Z,18.80
2022-08-08T03:52:56.829Z,18.80
2022-08-08T03:55:55.684Z,18.70
2022-08-08T03:58:35.340Z,18.60
2022-08-08T04:01:23.942Z,18.60
2022-08-08T04:04:01.866Z,18.60
2022-08-08T04:06:42.176Z,18.60
2022-08-08T04:09:13.636Z,18.60
2022-08-08T04:12:00.448Z,18.60
2022-08-08T04:14:54.066Z,18.50
2022-08-08T04:17:46.341Z,18.50
2022-08-08T04:20:17.008Z,18.40
2022-08-08T04:22:51.461Z,18.40
2022-08-08T04:25:23.247Z,18.40
2022-08-08T04:28:35.312Z,18.40
2022-08-08T04:30:55.223Z,18.30
2022-08-08T04:33:28.742Z,18.30
2022-08-08T04:36:12.545Z,18.40
2022-08-08T04:38:44.209Z,18.40
2022-08-08T04:41:21.356Z,18.40
2022-08-08T04:43:57.149Z,18.30
2022-08-08T04:46:31.619Z,18.30
2022-08-08T04:49:02.838Z,18.30
2022-08-08T04:51:57.074Z,18.30
2022-08-08T04:54:39.011Z,18.30
2022-08-08T04:57:13.094Z,18.30
2022-08-08T04:59:44.608Z,18.20
2022-08-08T05:02:31.168Z,18.20
2022-08-08T05:05:02.618Z,18.20
2022-08-08T05:07:42.665Z,18.20
2022-08-08T05:10:15.433Z,18.20
2022-08-08T05:13:00.375Z,18.20
2022-08-08T05:16:54.999Z,18.20
2022-08-08T05:18:29.209Z,18.20
2022-08-08T05:20:59.544Z,18.20
2022-08-08T05:23:41.077Z,18.30
2022-08-08T05:26:19.695Z,18.30
2022-08-08T05:28:57.092Z,18.30
2022-08-08T05:32:04.185Z,18.30
2022-08-08T05:34:36.895Z,18.30
2022-08-08T05:37:17.259Z,18.30
2022-08-08T05:39:55.062Z,18.30
2022-08-08T05:42:44.782Z,18.30
2022-08-08T05:45:30.872Z,18.30
2022-08-08T05:48:08.869Z,18.30
2022-08-08T05:50:45.448Z,18.40
2022-08-08T05:53:23.212Z,18.40
2022-08-08T05:56:14.977Z,18.40
2022-08-08T05:58:53.966Z,18.40
2022-08-08T06:01:56.250Z,18.40
2022-08-08T06:04:26.554Z,18.40
2022-08-08T06:07:04.159Z,18.40
2022-08-08T06:09:58.360Z,18.40
2022-08-08T06:12:31.584Z,18.50
2022-08-08T06:15:07.266Z,18.50
2022-08-08T06:18:18.462Z,18.50
2022-08-08T06:20:32.740Z,18.60
2022-08-08T06:23:08.660Z,18.70
2022-08-08T06:26:41.410Z,18.70
2022-08-08T06:28:40.233Z,18.70
2022-08-08T06:31:15.627Z,18.80
2022-08-08T06:34:27.038Z,18.80
2022-08-08T06:36:53.913Z,18.80
2022-08-08T06:39:32.575Z,18.90
2022-08-08T06:42:06.642Z,18.80
2022-08-08T06:44:45.411Z,18.80
2022-08-08T06:47:22.370Z,18.90
2022-08-08T06:50:04.022Z,18.80
2022-08-08T06:52:37.107Z,19.00
2022-08-08T06:55:18.097Z,19.00
2022-08-08T06:57:56.177Z,19.00
2022-08-08T07:00:32.619Z,19.00
2022-08-08T07:03:52.623Z,19.20
2022-08-08T07:06:06.315Z,19.20
2022-08-08T07:08:41.871Z,19.20
2022-08-08T07:11:21.892Z,19.20
2022-08-08T07:14:01.748Z,19.30
2022-08-08T07:16:50.893Z,19.30
2022-08-08T07:19:32.669Z,19.40
2022-08-08T07:22:11.982Z,19.40
2022-08-08T07:24:54.164Z,19.50
2022-08-08T07:27:46.952Z,19.50
2022-08-08T07:30:25.670Z,19.50
2022-08-08T07:33:01.119Z,19.60
2022-08-08T07:35:35.725Z,19.70
2022-08-08T07:38:10.386Z,19.80
2022-08-08T07:41:04.220Z,19.80
2022-08-08T07:43:39.981Z,19.90
2022-08-08T07:46:23.716Z,20.00
2022-08-08T07:49:03.824Z,20.00
2022-08-08T07:51:44.896Z,20.10
2022-08-08T07:54:34.624Z,20.10
2022-08-08T07:57:20.126Z,20.20
2022-08-08T08:00:04.938Z,20.20
2022-08-08T08:03:11.059Z,20.30
2022-08-08T08:05:50.904Z,20.30
2022-08-08T08:08:30.628Z,20.30
2022-08-08T08:11:03.122Z,20.40
2022-08-08T08:13:43.027Z,20.50
2022-08-08T08:16:37.608Z,20.50
2022-08-08T08:19:10.148Z,20.60
2022-08-08T08:21:57.735Z,20.60
2022-08-08T08:24:46.410Z,20.60
2022-08-08T08:27:20.160Z,20.70
2022-08-08T08:29:55.621Z,20.70
2022-08-08T08:32:36.652Z,20.80
2022-08-08T08:35:17.399Z,20.90
2022-08-08T08:38:14.656Z,21.00
2022-08-08T08:40:51.191Z,21.00
2022-08-08T08:43:26.779Z,21.10
2022-08-08T08:46:05.517Z,21.10
2022-08-08T08:48:41.888Z,21.20
2022-08-08T08:51:20.797Z,21.20
2022-08-08T08:54:00.844Z,21.30
2022-08-08T08:56:38.798Z,21.40
2022-08-08T08:59:18.729Z,21.40
2022-08-08T09:01:59.272Z,21.40
2022-08-08T09:04:45.546Z,21.50
2022-08-08T09:07:38.700Z,21.60
2022-08-08T09:10:17.334Z,21.70
2022-08-08T09:12:52.037Z,21.70
2022-08-08T09:15:40.720Z,21.80
2022-08-08T09:18:14.021Z,21.80
2022-08-08T09:21:56.000Z,21.90
2022-08-08T09:23:44.193Z,22.00
2022-08-08T09:26:24.254Z,22.10
2022-08-08T09:29:04.141Z,22.00
2022-08-08T09:31:56.560Z,22.10
2022-08-08T09:34:34.973Z,22.10
2022-08-08T09:37:56.999Z,22.30
2022-08-08T09:40:11.864Z,22.40
2022-08-08T09:42:51.590Z,22.40
2022-08-08T09:46:01.172Z,22.40
2022-08-08T09:48:21.053Z,22.50
2022-08-08T09:50:56.143Z,22.60
2022-08-08T09:54:01.317Z,22.80
2022-08-08T09:56:28.227Z,22.70
2022-08-08T09:59:31.996Z,22.90
2022-08-08T10:01:59.831Z,23.00
2022-08-08T10:04:41.631Z,23.00
2022-08-08T10:07:18.503Z,23.00
2022-08-08T10:09:59.601Z,23.20
2022-08-08T10:12:52.926Z,23.10
2022-08-08T10:15:25.712Z,23.30
2022-08-08T10:18:09.125Z,23.30
2022-08-08T10:20:57.326Z,23.30
2022-08-08T10:23:48.127Z,23.50
2022-08-08T10:26:30.814Z,23.60
2022-08-08T10:29:22.835Z,23.50
2022-08-08T10:32:12.892Z,23.50
2022-08-08T10:34:58.445Z,23.70
2022-08-08T10:37:34.660Z,23.70
2022-08-08T10:40:19.651Z,23.70
2022-08-08T10:42:57.980Z,23.80
2022-08-08T10:45:39.066Z,23.90
2022-08-08T10:48:14.618Z,24.00
2022-08-08T10:50:45.708Z,24.00
2022-08-08T10:53:16.459Z,24.20
2022-08-08T10:55:47.641Z,24.30
2022-08-08T10:58:20.592Z,24.30
2022-08-08T11:01:02.045Z,24.30
2022-08-08T11:04:00.443Z,24.20
2022-08-08T11:06:34.534Z,24.30
2022-08-08T11:09:09.588Z,24.60
2022-08-08T11:12:05.703Z,24.70
2022-08-08T11:14:52.297Z,24.70
2022-08-08T11:17:59.815Z,24.80
2022-08-08T11:20:23.721Z,24.80
2022-08-08T11:23:00.546Z,24.90
2022-08-08T11:25:52.169Z,25.00
2022-08-08T11:28:30.878Z,25.00
2022-08-08T11:31:06.570Z,25.00
2022-08-08T11:33:51.250Z,25.10
2022-08-08T11:36:27.899Z,25.20
2022-08-08T11:39:00.419Z,25.10
2022-08-08T11:41:35.493Z,25.30
2022-08-08T11:44:07.116Z,25.50
2022-08-08T11:46:42.804Z,25.40
2022-08-08T11:49:17.297Z,25.60
2022-08-08T11:51:50.443Z,25.70
2022-08-08T11:54:38.487Z,25.80
2022-08-08T11:57:27.394Z,25.80
2022-08-08T12:00:05.315Z,25.80
2022-08-08T12:02:54.927Z,25.90
2022-08-08T12:05:36.147Z,25.90
2022-08-08T12:08:07.542Z,25.80
2022-08-08T12:10:48.569Z,26.00
2022-08-08T12:13:37.755Z,26.00
2022-08-08T12:16:17.642Z,26.30
2022-08-08T12:18:53.358Z,26.20
2022-08-08T12:22:00.233Z,26.30
2022-08-08T12:24:17.916Z,26.30
2022-08-08T12:26:52.258Z,26.30
2022-08-08T12:29:41.945Z,26.40
2022-08-08T12:32:20.821Z,26.60
2022-08-08T12:35:17.457Z,26.40
2022-08-08T12:38:02.047Z,26.10
2022-08-08T12:40:56.663Z,26.10
2022-08-08T12:43:47.986Z,26.10
2022-08-08T12:46:26.982Z,26.40
2022-08-08T12:51:59.989Z,26.90
2022-08-08T12:54:35.873Z,26.80
2022-08-08T12:57:17.894Z,26.60
2022-08-08T13:00:03.635Z,26.60
2022-08-08T13:02:42.309Z,26.50
2022-08-08T13:05:26.887Z,26.70
2022-08-08T13:08:36.271Z,26.70
2022-08-08T13:11:08.763Z,26.90
2022-08-08T13:13:40.853Z,26.50
2022-08-08T13:16:25.771Z,26.50
2022-08-08T13:19:05.601Z,26.90
2022-08-08T13:21:55.301Z,27.20
2022-08-08T13:24:48.550Z,27.30
2022-08-08T13:27:21.002Z,27.00
2022-08-08T13:29:54.198Z,26.60
2022-08-08T13:32:25.804Z,26.70
2022-08-08T13:34:57.819Z,26.50
2022-08-08T13:38:04.525Z,26.60
2022-08-08T13:40:27.552Z,26.90
2022-08-08T13:42:59.706Z,27.10
2022-08-08T13:45:30.908Z,27.40
2022-08-08T13:48:02.920Z,27.30
2022-08-08T13:50:49.426Z,27.20
2022-08-08T13:53:33.936Z,27.10
2022-08-08T13:56:12.358Z,27.10
2022-08-08T13:58:57.500Z,27.20
2022-08-08T14:01:52.894Z,27.40
2022-08-08T14:04:27.572Z,27.40
2022-08-08T14:07:05.109Z,27.60
2022-08-08T14:10:04.299Z,27.70
2022-08-08T14:12:36.796Z,27.80
2022-08-08T14:15:08.872Z,27.80
2022-08-08T14:17:58.125Z,27.80
2022-08-08T14:20:55.483Z,27.80
2022-08-08T14:24:04.639Z,27.90
2022-08-08T14:26:25.190Z,28.10
2022-08-08T14:29:06.201Z,28.00
2022-08-08T14:32:10.792Z,28.20
2022-08-08T14:34:45.361Z,28.00
2022-08-08T14:37:20.500Z,28.20
2022-08-08T14:40:05.961Z,28.10
2022-08-08T14:42:54.496Z,27.70
2022-08-08T14:45:46.825Z,28.20
2022-08-08T14:48:34.699Z,28.30
2022-08-08T14:51:17.566Z,28.40
2022-08-08T14:53:55.629Z,28.60
2022-08-08T14:56:26.753Z,28.60
2022-08-08T14:58:57.585Z,28.30
2022-08-08T15:01:41.013Z,28.20
2022-08-08T15:04:13.676Z,28.20
2022-08-08T15:06:45.499Z,28.30
2022-08-08T15:09:16.192Z,28.30
2022-08-08T15:11:53.036Z,28.40
2022-08-08T15:14:26.652Z,28.50
2022-08-08T15:17:00.177Z,28.60
2022-08-08T15:19:33.484Z,28.60
2022-08-08T15:22:03.941Z,28.50
2022-08-08T15:24:34.673Z,28.80
2022-08-08T15:27:57.804Z,28.80
2022-08-08T15:29:55.652Z,28.80
2022-08-08T15:32:31.389Z,28.80
2022-08-08T15:35:05.900Z,28.80
2022-08-08T15:37:38.126Z,28.90
2022-08-08T15:40:15.365Z,29.00
2022-08-08T15:42:49.700Z,29.00
2022-08-08T15:45:22.923Z,29.10
2022-08-08T15:48:11.132Z,29.20
2022-08-08T15:50:58.769Z,29.20
2022-08-08T15:53:40.353Z,29.20
2022-08-08T15:56:20.481Z,29.20
2022-08-08T15:58:50.937Z,29.40
2022-08-08T16:01:22.507Z,29.50
2022-08-08T16:03:55.710Z,29.40
2022-08-08T16:06:30.947Z,29.50
2022-08-08T16:12:59.940Z,29.40
2022-08-08T16:13:09.109Z,29.30
2022-08-08T16:14:52.676Z,29.40
2022-08-08T16:17:57.333Z,29.40
2022-08-08T16:20:18.080Z,29.30
2022-08-08T16:22:49.370Z,29.40
2022-08-08T16:25:22.766Z,29.50
2022-08-08T16:28:00.718Z,29.60
2022-08-08T16:30:36.721Z,29.70
2022-08-08T16:33:07.541Z,29.50
2022-08-08T16:35:42.410Z,29.60
2022-08-08T16:38:31.579Z,29.60
2022-08-08T16:41:02.196Z,29.50
2022-08-08T16:43:48.852Z,29.50
2022-08-08T16:46:37.980Z,29.70
2022-08-08T16:49:11.975Z,29.80
2022-08-08T16:55:00.975Z,29.80
2022-08-08T16:55:13.927Z,29.80
2022-08-08T16:58:13.033Z,29.80
2022-08-08T17:00:27.160Z,29.60
2022-08-08T17:02:57.723Z,29.90
2022-08-08T17:05:42.458Z,29.90
2022-08-08T17:08:17.734Z,30.10
2022-08-08T17:10:58.118Z,30.10
2022-08-08T17:14:01.016Z,29.90
2022-08-08T17:16:31.651Z,30.00
2022-08-08T17:19:01.985Z,30.20
2022-08-08T17:21:41.521Z,30.30
2022-08-08T17:24:27.429Z,30.20
2022-08-08T17:26:59.440Z,30.10
2022-08-08T17:29:33.727Z,30.10
2022-08-08T17:32:07.837Z,30.10
2022-08-08T17:34:59.988Z,30.20
2022-08-08T17:37:32.790Z,30.20
2022-08-08T17:40:12.833Z,30.40
2022-08-08T17:42:47.284Z,30.40
2022-08-08T17:45:23.871Z,30.10
2022-08-08T17:47:57.440Z,30.00
2022-08-08T17:50:30.144Z,30.00
2022-08-08T17:53:02.384Z,29.80
2022-08-08T17:56:06.634Z,29.60
2022-08-08T17:58:28.170Z,29.60
2022-08-08T18:01:00.211Z,29.50
2022-08-08T18:03:30.568Z,29.50
2022-08-08T18:06:03.656Z,29.50
2022-08-08T18:08:50.468Z,29.40
2022-08-08T18:11:29.511Z,29.50
2022-08-08T18:14:03.644Z,29.20
2022-08-08T18:16:52.580Z,29.40
2022-08-08T18:19:24.793Z,29.70
2022-08-08T18:22:01.929Z,30.00
2022-08-08T18:24:33.300Z,30.90
2022-08-08T18:27:17.356Z,32.20
2022-08-08T18:29:56.999Z,33.00
2022-08-08T18:32:27.337Z,32.90
2022-08-08T18:34:58.916Z,31.90
2022-08-08T18:37:34.181Z,31.00
2022-08-08T18:40:07.342Z,30.40
2022-08-08T18:42:50.402Z,30.20
2022-08-08T18:46:53.040Z,29.80
2022-08-08T18:48:18.161Z,29.80
2022-08-08T18:50:50.201Z,29.60
2022-08-08T18:54:00.330Z,29.50
2022-08-08T18:56:26.730Z,29.30
2022-08-08T18:59:00.065Z,29.10
2022-08-08T19:02:27.976Z,29.00
2022-08-08T19:04:21.692Z,28.90
2022-08-08T19:06:52.887Z,28.80
2022-08-08T19:09:49.645Z,28.80
2022-08-08T19:12:16.303Z,28.70
2022-08-08T19:14:49.874Z,28.70
2022-08-08T19:17:28.751Z,28.60
2022-08-08T19:20:02.320Z,28.50
2022-08-08T19:22:34.335Z,28.40
2022-08-08T19:26:02.149Z,28.30
2022-08-08T19:27:59.608Z,28.30
2022-08-08T19:30:33.466Z,28.20
2022-08-08T19:33:04.193Z,28.10
2022-08-08T19:35:45.278Z,28.10
2022-08-08T19:38:25.084Z,27.90
2022-08-08T19:40:56.300Z,27.80
2022-08-08T19:43:28.653Z,27.80
2022-08-08T19:46:03.585Z,27.70
2022-08-08T19:48:34.614Z,27.60
2022-08-08T19:51:06.109Z,27.50
2022-08-08T19:53:53.952Z,27.50
2022-08-08T19:56:40.375Z,27.40
2022-08-08T19:59:12.974Z,27.40
2022-08-08T20:02:01.287Z,27.30
2022-08-08T20:04:34.076Z,27.20
2022-08-08T20:08:27.293Z,27.10
2022-08-08T20:09:57.113Z,27.00
2022-08-08T20:12:32.464Z,27.00
2022-08-08T20:15:15.085Z,26.90
2022-08-08T20:17:52.905Z,26.90
2022-08-08T20:20:25.355Z,26.80
2022-08-08T20:22:57.079Z,26.70
2022-08-08T20:25:31.367Z,26.70
2022-08-08T20:28:07.807Z,26.60
2022-08-08T20:30:56.306Z,26.50
2022-08-08T20:34:03.667Z,26.40
2022-08-08T20:36:23.280Z,26.40
2022-08-08T20:38:59.007Z,26.40
2022-08-08T20:41:31.457Z,26.30
2022-08-08T20:44:04.263Z,26.20
2022-08-08T20:46:37.732Z,26.20
2022-08-08T20:49:10.808Z,26.20
2022-08-08T20:51:43.394Z,26.10
2022-08-08T20:54:14.405Z,26.00
2022-08-08T20:57:16.394Z,26.00
2022-08-08T20:59:47.007Z,25.90
2022-08-08T21:02:25.822Z,25.90
2022-08-08T21:05:01.632Z,25.80
2022-08-08T21:08:33.242Z,25.80
2022-08-08T21:10:28.271Z,25.70
2022-08-08T21:12:58.744Z,25.70
2022-08-08T21:16:06.174Z,25.60
2022-08-08T21:18:19.937Z,25.60
2022-08-08T21:20:52.933Z,25.50
2022-08-08T21:23:58.601Z,25.40
2022-08-08T21:26:21.226Z,25.40
2022-08-08T21:29:00.906Z,25.30
2022-08-08T21:31:58.472Z,25.30
2022-08-08T21:34:23.357Z,25.20
2022-08-08T21:36:58.502Z,25.20
2022-08-08T21:39:54.589Z,25.10
2022-08-08T21:42:19.466Z,25.00
2022-08-08T21:44:58.543Z,25.10
2022-08-08T21:48:20.133Z,25.00
2022-08-08T21:50:20.127Z,24.90
2022-08-08T21:54:30.981Z,25.00
2022-08-08T21:56:25.897Z,25.00
2022-08-08T21:58:38.019Z,24.90
2022-08-08T22:01:27.892Z,24.70
2022-08-08T22:03:59.734Z,24.80
2022-08-08T22:06:32.014Z,24.70
2022-08-08T22:09:08.219Z,24.70
2022-08-08T22:12:03.086Z,24.70
2022-08-08T22:14:30.264Z,24.60
2022-08-08T22:17:00.802Z,24.60
2022-08-08T22:20:11.136Z,24.60
2022-08-08T22:22:28.701Z,24.50
2022-08-08T22:25:02.754Z,24.40
2022-08-08T22:28:04.117Z,24.40
2022-08-08T22:30:33.743Z,24.40
2022-08-08T22:33:09.218Z,24.30
2022-08-08T22:36:05.286Z,24.30
2022-08-08T22:38:48.613Z,24.20
2022-08-08T22:41:23.463Z,24.20
2022-08-08T22:44:02.529Z,24.10
2022-08-08T22:46:38.798Z,24.10
2022-08-08T22:49:10.659Z,24.00
2022-08-08T22:51:42.581Z,24.00
2022-08-08T22:54:31.342Z,23.90
2022-08-08T22:57:18.132Z,23.80
2022-08-08T22:59:59.493Z,23.80
2022-08-08T23:02:31.650Z,23.70
2022-08-08T23:05:07.551Z,23.70
2022-08-08T23:07:51.044Z,23.60
2022-08-08T23:10:25.336Z,23.60
2022-08-08T23:12:59.672Z,23.60
2022-08-08T23:16:38.377Z,23.50
2022-08-08T23:18:21.257Z,23.40
2022-08-08T23:20:54.737Z,23.30
2022-08-08T23:23:25.386Z,23.30
2022-08-08T23:25:56.239Z,23.30
2022-08-08T23:28:30.787Z,23.20
2022-08-08T23:31:01.476Z,23.20
2022-08-08T23:34:15.495Z,23.10
2022-08-08T23:36:26.163Z,23.20
2022-08-08T23:38:56.879Z,23.10
2022-08-08T23:41:28.938Z,23.00
2022-08-08T23:44:04.435Z,23.00
2022-08-08T23:49:06.561Z,23.00
2022-08-08T23:49:25.670Z,23.00
2022-08-08T23:52:06.904Z,22.90
2022-08-08T23:54:43.512Z,22.90
2022-08-08T23:57:28.546Z,22.80
